VEL - Vernal Rgnl

Pirep is a free, collaborative database of all public and private airports located within the United States. All pilots are welcome to contribute, edit, and improve any airport they have local knowledge about, no registration required.
Are you familiar with this airport? Help out other pilots by adding your local knowledge.
Uploaded photos will be licensed under a CC BY-SA 4.0 license. Please only upload photos you have the rights to use.
Tags
Public
Undocu­mented
METAR / TAF
Edit Tags
Food
Camping
Lodging
Car Rental
Bicycles
Swimming
Golfing
Fishing
Hot Springs
Museum
Flying Clubs
Airpark
Upcoming Events
No upcoming events. Is anything happening here soon?
*
*
*

Where exactly on/near the airport is this event taking place?

Is there a webpage with more information for this event?

Who should be contacted for more information?

What is this event all about?

Repeat every
Description
Transient Parking
Fuel Location
Landing & Tie-down Fees
Crew Car Availability
Flying Clubs
WiFi Access
Airport Statistics
Location: Vernal, UT
Elevation: 5,274ft
Sectional: Salt Lake City
Activation date: May 1945
Fuel: 100LL, A (prices)
Runway 17/35: 7,000ft
Access: Open to the public
Current Weather — VFR
  • Weather data is strictly informational and not for flight planning purposes.
  • METAR
    2024-05-26 04:53:00 MDT
    Ceiling Wind Temperature Dewpoint Weather Visbility
    Sky clear 280° @ 3kt 39°F 35°F N/A 10SM
    Raw: KVEL 261053Z AUTO 28003KT 10SM CLR 04/02 A3003 RMK AO2 SLP145 T00440022
  • TAF
    2024-05-26 00:00:00 MDT – 2024-05-26 03:00:00 MDT
    Ceiling Wind Weather Visbility
    7,000ft 60° @ 4kt Showers in vicinity 6SM
    Clouds: Overcast @ 7,000ft
    Raw: KVEL 260520Z 2606/2706 06004KT P6SM VCSH OVC070 FM260900 24002KT P6SM SKC FM262100 24007KT P6SM FEW090
  • TAF
    2024-05-26 03:00:00 MDT – 2024-05-26 15:00:00 MDT
    Ceiling Wind Weather Visbility
    Sky clear 240° @ 2kt N/A 6SM
    Clouds: @ ft
    Raw: KVEL 260520Z 2606/2706 06004KT P6SM VCSH OVC070 FM260900 24002KT P6SM SKC FM262100 24007KT P6SM FEW090
  • TAF
    2024-05-26 15:00:00 MDT – 2024-05-27 00:00:00 MDT
    Ceiling Wind Weather Visbility
    Sky clear 240° @ 7kt N/A 6SM
    Clouds: Few @ 9,000ft
    Raw: KVEL 260520Z 2606/2706 06004KT P6SM VCSH OVC070 FM260900 24002KT P6SM SKC FM262100 24007KT P6SM FEW090
Click/tap to add an annotation marker to the map
Airport Webcams
No webcams added yet.
Direct links to live image URLs will be displayed inline on this page. URLs to separate webpages will be linked to.
URL:
Direct links to live image URLs will be displayed inline on this page. URLs to separate webpages will be linked to.
URL:
Remarks
  • 24 hr ppr for acr ops ovr 30 pax seats - amgr.
  • Rwy 07/25 decommissioned.
  • For cd if una to ctc on fss freq, ctc salt lake artcc at 801-320-2568.
  • Actvt reil rwy 17 & 35; mirl rwy 17/35 - ctaf. papi rwy 17 & 35 on consly.
  • Aft hr ops ctc 435-789-8494 or 435-261-9000.
Comments
Leave a comment What was your experience like at this airport?